Terminal Aerodrome Forecast
Issued by NWS

Home | Current Version | Previous Version | Text Only | Print | Product List | Glossary On
Versions: 1 2 3 4 5 6 7 8 9 10 11 12 13 14
000
FTUS41 KCLE 252300
TAFFDY
TAF
KFDY 252330Z 2600/2624 21015G24KT P6SM BKN050
     FM260200 22010KT P6SM BKN150
     FM260800 21005KT 5SM BR BKN050
     FM261200 20010KT 6SM HZ BKN025
     FM261800 19012G20KT P6SM VCSH BKN050=

USA.gov is the U.S. government's official web portal to all federal, state and local government web resources and services.